aviador You're here:

KOQT Decoded Metar

OAK RIDGE in TN, USA
Report Time2018-05-21 23:53:00
UTC Time2018-05-22 00:09:42
Flight Rules vfr VFR
WindVRB at 04 kt
Visibility9999 m
Phenomena:N/A
Clouds:N/A
Expected CloudBase > 4,000 ft AGL from Temp-Dew spread
CeilingNone
Temp28°C (ISA +15)
Dew Point18°C (55% RH)
Heat Index28.9°C
QNH1019 hPa
Density Alt2,687 ft
Elevation909 ft
Report Wrong Elevation
Raw Report
METAR KOQT 212353Z AUTO VRB04KT 10SM CLR 28/18 A3008 RMK AO2 SLP169
T02830178 10300 20283 55000=

Extra information for KOQT:More info

Metar Taf Metar & Taf Last 4 Metars F.Rules Stats Wind Profile Meteogram Temp Stats Airport Information Weather charts Add Link Nearby VenuesMetar ALERT Operation Metar Decoded Social comments

AIRNAV info for KOQT